sensor_id;sensor_type;location;lat;lon;timestamp;P1;durP1;ratioP1;P2;durP2;ratioP2
15699;SDS011;7950;42.744;23.174;2022-09-13T00:00:11;4.80;;;4.40;;
15699;SDS011;7950;42.744;23.174;2022-09-13T00:02:41;5.37;;;4.37;;
15699;SDS011;7950;42.744;23.174;2022-09-13T00:05:09;5.13;;;4.23;;
15699;SDS011;7950;42.744;23.174;2022-09-13T00:07:40;5.20;;;4.70;;
15699;SDS011;7950;42.744;23.174;2022-09-13T00:10:08;4.77;;;4.27;;
15699;SDS011;7950;42.744;23.174;2022-09-13T00:12:37;4.50;;;4.10;;
15699;SDS011;7950;42.744;23.174;2022-09-13T00:15:06;4.43;;;4.03;;
15699;SDS011;7950;42.744;23.174;2022-09-13T00:17:36;5.13;;;4.63;;
15699;SDS011;7950;42.744;23.174;2022-09-13T00:20:05;7.73;;;4.87;;
15699;SDS011;7950;42.744;23.174;2022-09-13T00:25:31;5.00;;;4.50;;
15699;SDS011;7950;42.744;23.174;2022-09-13T00:28:10;5.40;;;4.53;;
15699;SDS011;7950;42.744;23.174;2022-09-13T00:30:38;4.83;;;4.43;;
15699;SDS011;7950;42.744;23.174;2022-09-13T00:33:07;6.23;;;4.70;;
15699;SDS011;7950;42.744;23.174;2022-09-13T00:35:35;5.13;;;4.63;;
15699;SDS011;7950;42.744;23.174;2022-09-13T00:38:05;5.20;;;4.50;;
15699;SDS011;7950;42.744;23.174;2022-09-13T00:40:36;4.87;;;4.47;;
15699;SDS011;7950;42.744;23.174;2022-09-13T00:43:05;4.47;;;4.07;;
15699;SDS011;7950;42.744;23.174;2022-09-13T00:45:45;4.87;;;4.47;;
15699;SDS011;7950;42.744;23.174;2022-09-13T00:48:16;5.00;;;4.50;;
15699;SDS011;7950;42.744;23.174;2022-09-13T00:50:51;5.73;;;4.80;;
15699;SDS011;7950;42.744;23.174;2022-09-13T00:53:25;4.83;;;4.43;;
15699;SDS011;7950;42.744;23.174;2022-09-13T00:55:58;6.90;;;4.70;;
15699;SDS011;7950;42.744;23.174;2022-09-13T00:58:35;4.60;;;4.20;;
15699;SDS011;7950;42.744;23.174;2022-09-13T01:01:10;5.20;;;4.77;;
15699;SDS011;7950;42.744;23.174;2022-09-13T01:03:43;4.73;;;4.27;;
15699;SDS011;7950;42.744;23.174;2022-09-13T01:06:23;5.20;;;4.70;;
15699;SDS011;7950;42.744;23.174;2022-09-13T01:08:57;5.87;;;4.57;;
15699;SDS011;7950;42.744;23.174;2022-09-13T01:11:31;6.03;;;4.93;;
15699;SDS011;7950;42.744;23.174;2022-09-13T01:14:07;5.97;;;4.60;;
15699;SDS011;7950;42.744;23.174;2022-09-13T01:16:37;9.17;;;4.70;;
15699;SDS011;7950;42.744;23.174;2022-09-13T01:22:19;5.70;;;4.33;;
15699;SDS011;7950;42.744;23.174;2022-09-13T01:25:52;4.93;;;4.50;;
15699;SDS011;7950;42.744;23.174;2022-09-13T01:29:05;5.30;;;4.80;;
15699;SDS011;7950;42.744;23.174;2022-09-13T01:32:09;5.97;;;4.37;;
15699;SDS011;7950;42.744;23.174;2022-09-13T01:34:53;6.50;;;5.03;;
15699;SDS011;7950;42.744;23.174;2022-09-13T01:37:40;7.20;;;4.80;;
15699;SDS011;7950;42.744;23.174;2022-09-13T01:40:18;7.93;;;5.27;;
15699;SDS011;7950;42.744;23.174;2022-09-13T01:43:11;4.80;;;4.40;;
15699;SDS011;7950;42.744;23.174;2022-09-13T01:46:01;5.27;;;4.73;;
15699;SDS011;7950;42.744;23.174;2022-09-13T01:48:39;4.97;;;4.50;;
15699;SDS011;7950;42.744;23.174;2022-09-13T01:51:26;5.93;;;4.70;;
15699;SDS011;7950;42.744;23.174;2022-09-13T01:54:05;6.13;;;4.67;;
15699;SDS011;7950;42.744;23.174;2022-09-13T01:56:48;4.53;;;4.17;;
15699;SDS011;7950;42.744;23.174;2022-09-13T01:59:28;4.40;;;4.00;;
15699;SDS011;7950;42.744;23.174;2022-09-13T02:02:07;4.97;;;4.47;;
15699;SDS011;7950;42.744;23.174;2022-09-13T02:04:45;5.10;;;4.60;;
15699;SDS011;7950;42.744;23.174;2022-09-13T02:07:20;5.00;;;4.60;;
15699;SDS011;7950;42.744;23.174;2022-09-13T02:09:59;5.07;;;4.67;;
15699;SDS011;7950;42.744;23.174;2022-09-13T02:12:49;5.97;;;4.57;;
15699;SDS011;7950;42.744;23.174;2022-09-13T02:15:21;6.87;;;4.63;;
15699;SDS011;7950;42.744;23.174;2022-09-13T02:17:59;5.57;;;4.87;;
15699;SDS011;7950;42.744;23.174;2022-09-13T02:20:39;4.80;;;4.37;;
15699;SDS011;7950;42.744;23.174;2022-09-13T02:23:14;4.93;;;4.50;;
15699;SDS011;7950;42.744;23.174;2022-09-13T02:25:50;5.40;;;4.90;;
15699;SDS011;7950;42.744;23.174;2022-09-13T02:28:25;5.23;;;4.67;;
15699;SDS011;7950;42.744;23.174;2022-09-13T02:31:01;5.03;;;4.53;;
15699;SDS011;7950;42.744;23.174;2022-09-13T02:36:39;4.90;;;4.50;;
15699;SDS011;7950;42.744;23.174;2022-09-13T02:39:12;4.60;;;4.00;;
15699;SDS011;7950;42.744;23.174;2022-09-13T02:41:45;5.60;;;4.50;;
15699;SDS011;7950;42.744;23.174;2022-09-13T02:44:24;4.97;;;4.50;;
15699;SDS011;7950;42.744;23.174;2022-09-13T02:47:21;6.27;;;4.53;;
15699;SDS011;7950;42.744;23.174;2022-09-13T02:50:22;5.13;;;4.63;;
15699;SDS011;7950;42.744;23.174;2022-09-13T02:54:12;5.03;;;4.53;;
15699;SDS011;7950;42.744;23.174;2022-09-13T02:56:53;5.17;;;4.60;;
15699;SDS011;7950;42.744;23.174;2022-09-13T02:59:27;6.47;;;4.43;;
15699;SDS011;7950;42.744;23.174;2022-09-13T03:01:58;5.63;;;4.30;;
15699;SDS011;7950;42.744;23.174;2022-09-13T03:04:33;4.53;;;4.10;;
15699;SDS011;7950;42.744;23.174;2022-09-13T03:07:04;4.70;;;3.97;;
15699;SDS011;7950;42.744;23.174;2022-09-13T03:09:41;5.13;;;4.20;;
15699;SDS011;7950;42.744;23.174;2022-09-13T03:12:20;5.20;;;4.70;;
15699;SDS011;7950;42.744;23.174;2022-09-13T03:15:09;4.93;;;4.53;;
15699;SDS011;7950;42.744;23.174;2022-09-13T03:17:53;5.43;;;4.37;;
15699;SDS011;7950;42.744;23.174;2022-09-13T03:20:39;4.60;;;4.20;;
15699;SDS011;7950;42.744;23.174;2022-09-13T03:23:27;4.80;;;4.40;;
15699;SDS011;7950;42.744;23.174;2022-09-13T03:26:28;5.07;;;4.57;;
15699;SDS011;7950;42.744;23.174;2022-09-13T03:29:24;5.10;;;4.60;;
15699;SDS011;7950;42.744;23.174;2022-09-13T03:32:04;5.33;;;4.00;;
15699;SDS011;7950;42.744;23.174;2022-09-13T03:34:47;4.70;;;4.30;;
15699;SDS011;7950;42.744;23.174;2022-09-13T03:37:30;4.60;;;4.20;;
15699;SDS011;7950;42.744;23.174;2022-09-13T03:40:09;4.73;;;4.30;;
15699;SDS011;7950;42.744;23.174;2022-09-13T03:42:49;5.43;;;4.40;;
15699;SDS011;7950;42.744;23.174;2022-09-13T03:45:30;4.03;;;3.73;;
15699;SDS011;7950;42.744;23.174;2022-09-13T03:48:18;4.87;;;4.13;;
15699;SDS011;7950;42.744;23.174;2022-09-13T03:50:47;6.53;;;4.07;;
15699;SDS011;7950;42.744;23.174;2022-09-13T03:53:18;4.60;;;4.07;;
15699;SDS011;7950;42.744;23.174;2022-09-13T03:55:51;4.83;;;4.30;;
15699;SDS011;7950;42.744;23.174;2022-09-13T03:58:21;5.10;;;3.90;;
15699;SDS011;7950;42.744;23.174;2022-09-13T04:00:52;4.30;;;3.90;;
15699;SDS011;7950;42.744;23.174;2022-09-13T04:03:21;4.27;;;3.87;;
15699;SDS011;7950;42.744;23.174;2022-09-13T04:05:50;5.60;;;4.27;;
15699;SDS011;7950;42.744;23.174;2022-09-13T04:08:19;4.60;;;4.20;;
15699;SDS011;7950;42.744;23.174;2022-09-13T04:10:48;4.97;;;4.07;;
15699;SDS011;7950;42.744;23.174;2022-09-13T04:13:18;4.40;;;4.00;;
15699;SDS011;7950;42.744;23.174;2022-09-13T04:15:49;4.80;;;3.93;;
15699;SDS011;7950;42.744;23.174;2022-09-13T04:18:18;5.13;;;4.23;;
15699;SDS011;7950;42.744;23.174;2022-09-13T04:20:53;4.73;;;4.33;;
15699;SDS011;7950;42.744;23.174;2022-09-13T04:23:23;5.87;;;3.90;;
15699;SDS011;7950;42.744;23.174;2022-09-13T04:25:54;4.70;;;4.10;;
15699;SDS011;7950;42.744;23.174;2022-09-13T04:28:28;4.67;;;4.17;;
15699;SDS011;7950;42.744;23.174;2022-09-13T04:30:58;5.23;;;4.60;;
15699;SDS011;7950;42.744;23.174;2022-09-13T04:33:27;4.33;;;3.77;;
15699;SDS011;7950;42.744;23.174;2022-09-13T04:35:57;4.50;;;4.10;;
15699;SDS011;7950;42.744;23.174;2022-09-13T04:38:26;6.07;;;4.43;;
15699;SDS011;7950;42.744;23.174;2022-09-13T04:40:57;4.67;;;3.80;;
15699;SDS011;7950;42.744;23.174;2022-09-13T04:43:26;4.67;;;3.80;;
15699;SDS011;7950;42.744;23.174;2022-09-13T04:45:59;4.10;;;3.70;;
15699;SDS011;7950;42.744;23.174;2022-09-13T04:48:28;4.07;;;3.67;;
15699;SDS011;7950;42.744;23.174;2022-09-13T04:50:59;12.70;;;8.90;;
15699;SDS011;7950;42.744;23.174;2022-09-13T04:53:30;16.27;;;10.83;;
15699;SDS011;7950;42.744;23.174;2022-09-13T04:55:59;4.93;;;4.40;;
15699;SDS011;7950;42.744;23.174;2022-09-13T04:58:28;3.90;;;3.60;;
15699;SDS011;7950;42.744;23.174;2022-09-13T05:01:02;7.93;;;7.17;;
15699;SDS011;7950;42.744;23.174;2022-09-13T05:03:33;7.40;;;6.37;;
15699;SDS011;7950;42.744;23.174;2022-09-13T05:06:04;6.70;;;6.13;;
15699;SDS011;7950;42.744;23.174;2022-09-13T05:08:34;16.80;;;5.27;;
15699;SDS011;7950;42.744;23.174;2022-09-13T05:11:04;6.10;;;5.23;;
15699;SDS011;7950;42.744;23.174;2022-09-13T05:13:34;5.73;;;3.80;;
15699;SDS011;7950;42.744;23.174;2022-09-13T05:16:06;4.47;;;3.93;;
15699;SDS011;7950;42.744;23.174;2022-09-13T05:18:35;7.80;;;4.70;;
15699;SDS011;7950;42.744;23.174;2022-09-13T05:21:10;5.17;;;4.00;;
15699;SDS011;7950;42.744;23.174;2022-09-13T05:23:39;5.23;;;3.73;;
15699;SDS011;7950;42.744;23.174;2022-09-13T05:26:08;3.73;;;3.43;;
15699;SDS011;7950;42.744;23.174;2022-09-13T05:28:38;10.67;;;9.27;;
15699;SDS011;7950;42.744;23.174;2022-09-13T05:31:09;9.20;;;7.47;;
15699;SDS011;7950;42.744;23.174;2022-09-13T05:33:43;4.67;;;3.60;;
15699;SDS011;7950;42.744;23.174;2022-09-13T05:36:19;4.90;;;3.70;;
15699;SDS011;7950;42.744;23.174;2022-09-13T05:38:48;5.13;;;4.03;;
15699;SDS011;7950;42.744;23.174;2022-09-13T05:41:37;4.00;;;3.60;;
15699;SDS011;7950;42.744;23.174;2022-09-13T05:44:06;7.03;;;3.47;;
15699;SDS011;7950;42.744;23.174;2022-09-13T05:46:40;15.20;;;10.57;;
15699;SDS011;7950;42.744;23.174;2022-09-13T05:49:13;46.30;;;30.73;;
15699;SDS011;7950;42.744;23.174;2022-09-13T05:51:42;18.13;;;11.43;;
15699;SDS011;7950;42.744;23.174;2022-09-13T05:54:11;8.80;;;7.90;;
15699;SDS011;7950;42.744;23.174;2022-09-13T05:56:40;5.00;;;4.50;;
15699;SDS011;7950;42.744;23.174;2022-09-13T05:59:10;5.30;;;4.80;;
15699;SDS011;7950;42.744;23.174;2022-09-13T06:01:42;9.67;;;8.63;;
15699;SDS011;7950;42.744;23.174;2022-09-13T06:04:11;16.20;;;14.50;;
15699;SDS011;7950;42.744;23.174;2022-09-13T06:06:40;6.30;;;4.20;;
15699;SDS011;7950;42.744;23.174;2022-09-13T06:09:09;3.60;;;3.00;;
15699;SDS011;7950;42.744;23.174;2022-09-13T06:11:57;4.43;;;3.20;;
15699;SDS011;7950;42.744;23.174;2022-09-13T06:14:26;6.50;;;4.30;;
15699;SDS011;7950;42.744;23.174;2022-09-13T06:16:57;3.43;;;3.03;;
15699;SDS011;7950;42.744;23.174;2022-09-13T06:19:25;4.73;;;3.00;;
15699;SDS011;7950;42.744;23.174;2022-09-13T06:21:54;4.93;;;3.53;;
15699;SDS011;7950;42.744;23.174;2022-09-13T06:24:23;3.80;;;3.20;;
15699;SDS011;7950;42.744;23.174;2022-09-13T06:26:52;3.40;;;3.10;;
15699;SDS011;7950;42.744;23.174;2022-09-13T06:29:21;3.40;;;3.10;;
15699;SDS011;7950;42.744;23.174;2022-09-13T06:31:50;3.00;;;2.80;;
15699;SDS011;7950;42.744;23.174;2022-09-13T06:34:21;3.33;;;3.03;;
15699;SDS011;7950;42.744;23.174;2022-09-13T06:36:56;3.63;;;3.33;;
15699;SDS011;7950;42.744;23.174;2022-09-13T06:39:25;5.40;;;4.50;;
15699;SDS011;7950;42.744;23.174;2022-09-13T06:41:54;6.23;;;2.93;;
15699;SDS011;7950;42.744;23.174;2022-09-13T06:44:23;3.30;;;3.00;;
15699;SDS011;7950;42.744;23.174;2022-09-13T06:46:52;3.27;;;2.97;;
15699;SDS011;7950;42.744;23.174;2022-09-13T06:49:22;3.00;;;2.70;;
15699;SDS011;7950;42.744;23.174;2022-09-13T06:51:51;3.37;;;2.90;;
15699;SDS011;7950;42.744;23.174;2022-09-13T06:54:20;3.80;;;3.30;;
15699;SDS011;7950;42.744;23.174;2022-09-13T06:56:49;3.53;;;3.20;;
15699;SDS011;7950;42.744;23.174;2022-09-13T06:59:18;3.37;;;3.07;;
15699;SDS011;7950;42.744;23.174;2022-09-13T07:01:47;3.90;;;3.50;;
15699;SDS011;7950;42.744;23.174;2022-09-13T07:04:17;4.03;;;3.50;;
15699;SDS011;7950;42.744;23.174;2022-09-13T07:06:48;4.77;;;3.10;;
15699;SDS011;7950;42.744;23.174;2022-09-13T07:09:18;3.27;;;2.70;;
15699;SDS011;7950;42.744;23.174;2022-09-13T07:11:48;5.20;;;3.40;;
15699;SDS011;7950;42.744;23.174;2022-09-13T07:14:21;3.13;;;2.93;;
15699;SDS011;7950;42.744;23.174;2022-09-13T07:16:54;3.07;;;2.87;;
15699;SDS011;7950;42.744;23.174;2022-09-13T07:19:23;5.43;;;4.37;;
15699;SDS011;7950;42.744;23.174;2022-09-13T07:21:56;2.77;;;2.57;;
15699;SDS011;7950;42.744;23.174;2022-09-13T07:24:25;4.20;;;3.53;;
15699;SDS011;7950;42.744;23.174;2022-09-13T07:26:54;8.03;;;4.87;;
15699;SDS011;7950;42.744;23.174;2022-09-13T07:29:23;6.50;;;3.30;;
15699;SDS011;7950;42.744;23.174;2022-09-13T07:31:52;5.57;;;3.93;;
15699;SDS011;7950;42.744;23.174;2022-09-13T07:34:22;3.97;;;3.10;;
15699;SDS011;7950;42.744;23.174;2022-09-13T07:36:53;3.17;;;2.90;;
15699;SDS011;7950;42.744;23.174;2022-09-13T07:39:23;4.33;;;3.00;;
15699;SDS011;7950;42.744;23.174;2022-09-13T07:41:52;2.77;;;2.57;;
15699;SDS011;7950;42.744;23.174;2022-09-13T07:44:23;3.63;;;2.80;;
15699;SDS011;7950;42.744;23.174;2022-09-13T07:46:52;3.33;;;2.60;;
15699;SDS011;7950;42.744;23.174;2022-09-13T07:49:21;3.20;;;2.90;;
15699;SDS011;7950;42.744;23.174;2022-09-13T07:51:49;3.10;;;2.80;;
15699;SDS011;7950;42.744;23.174;2022-09-13T07:54:19;3.93;;;3.03;;
15699;SDS011;7950;42.744;23.174;2022-09-13T07:56:49;3.30;;;2.70;;
15699;SDS011;7950;42.744;23.174;2022-09-13T07:59:18;5.23;;;3.50;;
15699;SDS011;7950;42.744;23.174;2022-09-13T08:01:47;3.13;;;2.83;;
15699;SDS011;7950;42.744;23.174;2022-09-13T08:04:19;4.93;;;3.47;;
15699;SDS011;7950;42.744;23.174;2022-09-13T08:06:51;3.20;;;2.90;;
15699;SDS011;7950;42.744;23.174;2022-09-13T08:09:20;4.50;;;3.03;;
15699;SDS011;7950;42.744;23.174;2022-09-13T08:11:51;2.30;;;2.10;;
15699;SDS011;7950;42.744;23.174;2022-09-13T08:14:20;3.80;;;2.50;;
15699;SDS011;7950;42.744;23.174;2022-09-13T08:16:53;3.33;;;3.00;;
15699;SDS011;7950;42.744;23.174;2022-09-13T08:19:23;2.70;;;2.20;;
15699;SDS011;7950;42.744;23.174;2022-09-13T08:22:04;2.40;;;2.20;;
15699;SDS011;7950;42.744;23.174;2022-09-13T08:24:33;3.60;;;2.90;;
15699;SDS011;7950;42.744;23.174;2022-09-13T08:27:04;3.30;;;3.00;;
15699;SDS011;7950;42.744;23.174;2022-09-13T08:29:33;4.57;;;3.10;;
15699;SDS011;7950;42.744;23.174;2022-09-13T08:32:02;2.40;;;2.20;;
15699;SDS011;7950;42.744;23.174;2022-09-13T08:34:31;2.40;;;1.90;;
15699;SDS011;7950;42.744;23.174;2022-09-13T08:37:00;2.90;;;2.70;;
15699;SDS011;7950;42.744;23.174;2022-09-13T08:39:29;3.23;;;2.10;;
15699;SDS011;7950;42.744;23.174;2022-09-13T08:44:59;1.80;;;1.70;;
15699;SDS011;7950;42.744;23.174;2022-09-13T08:47:36;2.27;;;2.00;;
15699;SDS011;7950;42.744;23.174;2022-09-13T08:50:11;2.43;;;2.23;;
15699;SDS011;7950;42.744;23.174;2022-09-13T08:55:54;5.43;;;2.10;;
15699;SDS011;7950;42.744;23.174;2022-09-13T09:01:44;4.13;;;2.90;;
15699;SDS011;7950;42.744;23.174;2022-09-13T09:04:36;2.20;;;2.00;;
15699;SDS011;7950;42.744;23.174;2022-09-13T09:07:14;2.83;;;2.27;;
15699;SDS011;7950;42.744;23.174;2022-09-13T09:09:48;2.53;;;2.33;;
15699;SDS011;7950;42.744;23.174;2022-09-13T09:12:23;2.50;;;2.30;;
15699;SDS011;7950;42.744;23.174;2022-09-13T09:15:04;2.40;;;2.20;;
15699;SDS011;7950;42.744;23.174;2022-09-13T09:17:45;2.60;;;2.40;;
15699;SDS011;7950;42.744;23.174;2022-09-13T09:20:27;2.40;;;2.20;;
15699;SDS011;7950;42.744;23.174;2022-09-13T09:23:02;2.60;;;2.40;;
15699;SDS011;7950;42.744;23.174;2022-09-13T09:25:46;3.23;;;2.67;;
15699;SDS011;7950;42.744;23.174;2022-09-13T09:28:20;2.67;;;2.47;;
15699;SDS011;7950;42.744;23.174;2022-09-13T09:30:54;3.03;;;2.60;;
15699;SDS011;7950;42.744;23.174;2022-09-13T09:33:35;2.70;;;2.50;;
15699;SDS011;7950;42.744;23.174;2022-09-13T09:36:28;2.97;;;2.50;;
15699;SDS011;7950;42.744;23.174;2022-09-13T09:39:09;2.93;;;2.27;;
15699;SDS011;7950;42.744;23.174;2022-09-13T09:41:42;3.30;;;2.33;;
15699;SDS011;7950;42.744;23.174;2022-09-13T09:44:21;2.80;;;2.60;;
15699;SDS011;7950;42.744;23.174;2022-09-13T09:46:55;2.70;;;2.50;;
15699;SDS011;7950;42.744;23.174;2022-09-13T09:49:31;4.73;;;2.70;;
15699;SDS011;7950;42.744;23.174;2022-09-13T09:52:23;2.57;;;2.13;;
15699;SDS011;7950;42.744;23.174;2022-09-13T09:57:55;2.20;;;2.10;;
15699;SDS011;7950;42.744;23.174;2022-09-13T10:00:27;2.90;;;2.60;;
15699;SDS011;7950;42.744;23.174;2022-09-13T10:03:02;2.73;;;2.40;;
15699;SDS011;7950;42.744;23.174;2022-09-13T10:05:36;2.80;;;2.60;;
15699;SDS011;7950;42.744;23.174;2022-09-13T10:08:04;2.87;;;2.30;;
15699;SDS011;7950;42.744;23.174;2022-09-13T10:10:37;2.80;;;2.60;;
15699;SDS011;7950;42.744;23.174;2022-09-13T10:13:12;3.87;;;2.97;;
15699;SDS011;7950;42.744;23.174;2022-09-13T10:15:52;3.23;;;2.93;;
15699;SDS011;7950;42.744;23.174;2022-09-13T10:18:25;4.27;;;2.77;;
15699;SDS011;7950;42.744;23.174;2022-09-13T10:21:21;3.80;;;2.77;;
15699;SDS011;7950;42.744;23.174;2022-09-13T10:23:52;2.60;;;2.40;;
15699;SDS011;7950;42.744;23.174;2022-09-13T10:26:48;3.40;;;2.40;;
15699;SDS011;7950;42.744;23.174;2022-09-13T10:29:17;3.43;;;2.60;;
15699;SDS011;7950;42.744;23.174;2022-09-13T10:34:46;3.17;;;2.27;;
15699;SDS011;7950;42.744;23.174;2022-09-13T10:37:19;2.13;;;2.00;;
15699;SDS011;7950;42.744;23.174;2022-09-13T10:39:52;3.03;;;2.23;;
15699;SDS011;7950;42.744;23.174;2022-09-13T10:42:34;3.13;;;2.73;;
15699;SDS011;7950;42.744;23.174;2022-09-13T10:45:04;2.13;;;1.87;;
15699;SDS011;7950;42.744;23.174;2022-09-13T10:47:36;2.67;;;2.27;;
15699;SDS011;7950;42.744;23.174;2022-09-13T10:50:19;2.87;;;2.17;;
15699;SDS011;7950;42.744;23.174;2022-09-13T10:52:52;4.40;;;1.97;;
15699;SDS011;7950;42.744;23.174;2022-09-13T10:58:11;3.40;;;2.30;;
15699;SDS011;7950;42.744;23.174;2022-09-13T11:11:05;2.60;;;2.40;;
15699;SDS011;7950;42.744;23.174;2022-09-13T11:13:49;2.60;;;2.40;;
15699;SDS011;7950;42.744;23.174;2022-09-13T11:16:39;2.20;;;2.07;;
15699;SDS011;7950;42.744;23.174;2022-09-13T11:22:44;2.53;;;2.33;;
15699;SDS011;7950;42.744;23.174;2022-09-13T11:25:50;2.03;;;1.93;;
15699;SDS011;7950;42.744;23.174;2022-09-13T11:28:41;3.37;;;2.00;;
15699;SDS011;7950;42.744;23.174;2022-09-13T11:31:25;2.90;;;2.10;;
15699;SDS011;7950;42.744;23.174;2022-09-13T11:34:28;2.57;;;2.37;;
15699;SDS011;7950;42.744;23.174;2022-09-13T11:37:13;2.20;;;2.00;;
15699;SDS011;7950;42.744;23.174;2022-09-13T11:40:15;2.20;;;2.00;;
15699;SDS011;7950;42.744;23.174;2022-09-13T11:43:16;2.20;;;2.00;;
15699;SDS011;7950;42.744;23.174;2022-09-13T11:46:09;4.77;;;2.03;;
15699;SDS011;7950;42.744;23.174;2022-09-13T11:48:57;2.00;;;1.90;;
15699;SDS011;7950;42.744;23.174;2022-09-13T11:52:01;2.33;;;1.90;;
15699;SDS011;7950;42.744;23.174;2022-09-13T11:54:51;2.27;;;2.10;;
15699;SDS011;7950;42.744;23.174;2022-09-13T11:57:36;4.10;;;2.00;;
15699;SDS011;7950;42.744;23.174;2022-09-13T12:00:14;2.13;;;2.00;;
15699;SDS011;7950;42.744;23.174;2022-09-13T12:02:52;4.20;;;2.17;;
15699;SDS011;7950;42.744;23.174;2022-09-13T12:05:31;1.90;;;1.80;;
15699;SDS011;7950;42.744;23.174;2022-09-13T12:08:09;2.17;;;1.97;;
15699;SDS011;7950;42.744;23.174;2022-09-13T12:10:47;4.33;;;2.10;;
15699;SDS011;7950;42.744;23.174;2022-09-13T12:13:25;1.90;;;1.70;;
15699;SDS011;7950;42.744;23.174;2022-09-13T12:15:58;2.43;;;2.23;;
15699;SDS011;7950;42.744;23.174;2022-09-13T12:18:33;3.77;;;1.97;;
15699;SDS011;7950;42.744;23.174;2022-09-13T12:21:10;2.70;;;1.90;;
15699;SDS011;7950;42.744;23.174;2022-09-13T12:23:45;3.70;;;2.17;;
15699;SDS011;7950;42.744;23.174;2022-09-13T12:26:25;1.73;;;1.63;;
15699;SDS011;7950;42.744;23.174;2022-09-13T12:29:04;2.13;;;1.93;;
15699;SDS011;7950;42.744;23.174;2022-09-13T12:31:42;2.73;;;1.90;;
15699;SDS011;7950;42.744;23.174;2022-09-13T12:34:14;2.20;;;2.00;;
15699;SDS011;7950;42.744;23.174;2022-09-13T12:36:55;2.00;;;1.80;;
15699;SDS011;7950;42.744;23.174;2022-09-13T12:43:17;3.27;;;1.80;;
15699;SDS011;7950;42.744;23.174;2022-09-13T12:52:56;3.13;;;2.10;;
15699;SDS011;7950;42.744;23.174;2022-09-13T12:55:51;2.17;;;1.97;;
15699;SDS011;7950;42.744;23.174;2022-09-13T13:01:43;1.90;;;1.80;;
15699;SDS011;7950;42.744;23.174;2022-09-13T13:04:16;3.57;;;2.27;;
15699;SDS011;7950;42.744;23.174;2022-09-13T13:06:52;2.53;;;2.30;;
15699;SDS011;7950;42.744;23.174;2022-09-13T13:09:35;3.00;;;1.90;;
15699;SDS011;7950;42.744;23.174;2022-09-13T13:12:09;2.37;;;2.17;;
15699;SDS011;7950;42.744;23.174;2022-09-13T13:14:43;3.60;;;2.27;;
15699;SDS011;7950;42.744;23.174;2022-09-13T13:17:38;3.77;;;3.20;;
15699;SDS011;7950;42.744;23.174;2022-09-13T13:23:16;2.77;;;2.57;;
15699;SDS011;7950;42.744;23.174;2022-09-13T13:28:50;4.17;;;2.43;;
15699;SDS011;7950;42.744;23.174;2022-09-13T13:31:43;2.87;;;2.67;;
15699;SDS011;7950;42.744;23.174;2022-09-13T13:34:46;4.43;;;2.40;;
15699;SDS011;7950;42.744;23.174;2022-09-13T13:37:23;5.57;;;2.70;;
15699;SDS011;7950;42.744;23.174;2022-09-13T13:40:22;2.50;;;2.30;;
15699;SDS011;7950;42.744;23.174;2022-09-13T13:45:58;2.70;;;2.50;;
15699;SDS011;7950;42.744;23.174;2022-09-13T13:48:55;3.13;;;2.50;;
15699;SDS011;7950;42.744;23.174;2022-09-13T13:55:30;4.80;;;2.60;;
15699;SDS011;7950;42.744;23.174;2022-09-13T13:58:11;2.30;;;2.10;;
15699;SDS011;7950;42.744;23.174;2022-09-13T14:00:58;2.50;;;2.30;;
15699;SDS011;7950;42.744;23.174;2022-09-13T14:03:37;2.40;;;2.20;;
15699;SDS011;7950;42.744;23.174;2022-09-13T14:06:25;3.37;;;2.50;;
15699;SDS011;7950;42.744;23.174;2022-09-13T14:09:02;3.23;;;2.33;;
15699;SDS011;7950;42.744;23.174;2022-09-13T14:11:53;2.87;;;2.63;;
15699;SDS011;7950;42.744;23.174;2022-09-13T14:14:47;3.07;;;2.30;;
15699;SDS011;7950;42.744;23.174;2022-09-13T14:17:40;2.60;;;2.43;;
15699;SDS011;7950;42.744;23.174;2022-09-13T14:23:27;2.70;;;2.50;;
15699;SDS011;7950;42.744;23.174;2022-09-13T14:25:56;2.87;;;2.30;;
15699;SDS011;7950;42.744;23.174;2022-09-13T14:28:28;2.50;;;2.30;;
15699;SDS011;7950;42.744;23.174;2022-09-13T14:30:59;3.53;;;2.20;;
15699;SDS011;7950;42.744;23.174;2022-09-13T14:33:28;4.47;;;2.50;;
15699;SDS011;7950;42.744;23.174;2022-09-13T14:36:02;2.40;;;2.20;;
15699;SDS011;7950;42.744;23.174;2022-09-13T14:38:34;2.37;;;2.17;;
15699;SDS011;7950;42.744;23.174;2022-09-13T14:41:11;2.90;;;2.60;;
15699;SDS011;7950;42.744;23.174;2022-09-13T14:43:43;2.63;;;2.43;;
15699;SDS011;7950;42.744;23.174;2022-09-13T14:46:15;4.33;;;2.23;;
15699;SDS011;7950;42.744;23.174;2022-09-13T14:48:51;2.80;;;2.27;;
15699;SDS011;7950;42.744;23.174;2022-09-13T14:51:24;3.37;;;2.50;;
15699;SDS011;7950;42.744;23.174;2022-09-13T14:53:58;3.20;;;2.40;;
15699;SDS011;7950;42.744;23.174;2022-09-13T14:56:36;2.60;;;2.40;;
15699;SDS011;7950;42.744;23.174;2022-09-13T14:59:12;2.50;;;2.30;;
15699;SDS011;7950;42.744;23.174;2022-09-13T15:04:50;2.40;;;2.20;;
15699;SDS011;7950;42.744;23.174;2022-09-13T15:07:22;2.67;;;2.47;;
15699;SDS011;7950;42.744;23.174;2022-09-13T15:09:57;3.30;;;2.50;;
15699;SDS011;7950;42.744;23.174;2022-09-13T15:12:36;3.17;;;2.60;;
15699;SDS011;7950;42.744;23.174;2022-09-13T15:15:22;2.37;;;2.27;;
15699;SDS011;7950;42.744;23.174;2022-09-13T15:17:59;2.37;;;2.27;;
15699;SDS011;7950;42.744;23.174;2022-09-13T15:20:43;2.47;;;2.27;;
15699;SDS011;7950;42.744;23.174;2022-09-13T15:23:16;2.67;;;2.43;;
15699;SDS011;7950;42.744;23.174;2022-09-13T15:25:50;3.10;;;2.50;;
15699;SDS011;7950;42.744;23.174;2022-09-13T15:28:22;6.07;;;2.50;;
15699;SDS011;7950;42.744;23.174;2022-09-13T15:30:56;2.90;;;2.60;;
15699;SDS011;7950;42.744;23.174;2022-09-13T15:33:29;3.03;;;2.73;;
15699;SDS011;7950;42.744;23.174;2022-09-13T15:36:24;3.37;;;2.70;;
15699;SDS011;7950;42.744;23.174;2022-09-13T15:38:57;2.73;;;2.53;;
15699;SDS011;7950;42.744;23.174;2022-09-13T15:41:30;3.73;;;3.00;;
15699;SDS011;7950;42.744;23.174;2022-09-13T15:44:02;3.50;;;3.00;;
15699;SDS011;7950;42.744;23.174;2022-09-13T15:46:36;3.87;;;3.10;;
15699;SDS011;7950;42.744;23.174;2022-09-13T15:49:14;3.37;;;3.07;;
15699;SDS011;7950;42.744;23.174;2022-09-13T15:51:45;3.30;;;3.00;;
15699;SDS011;7950;42.744;23.174;2022-09-13T15:54:15;3.57;;;3.00;;
15699;SDS011;7950;42.744;23.174;2022-09-13T15:56:45;3.60;;;3.20;;
15699;SDS011;7950;42.744;23.174;2022-09-13T15:59:17;3.40;;;3.10;;
15699;SDS011;7950;42.744;23.174;2022-09-13T16:01:50;4.17;;;3.47;;
15699;SDS011;7950;42.744;23.174;2022-09-13T16:04:19;3.23;;;3.00;;
15699;SDS011;7950;42.744;23.174;2022-09-13T16:06:48;3.50;;;3.20;;
15699;SDS011;7950;42.744;23.174;2022-09-13T16:09:17;4.23;;;3.30;;
15699;SDS011;7950;42.744;23.174;2022-09-13T16:11:48;6.10;;;3.50;;
15699;SDS011;7950;42.744;23.174;2022-09-13T16:14:18;3.50;;;3.20;;
15699;SDS011;7950;42.744;23.174;2022-09-13T16:16:47;3.57;;;3.27;;
15699;SDS011;7950;42.744;23.174;2022-09-13T16:19:19;4.43;;;3.53;;
15699;SDS011;7950;42.744;23.174;2022-09-13T16:21:50;3.87;;;3.47;;
15699;SDS011;7950;42.744;23.174;2022-09-13T16:24:19;3.63;;;3.33;;
15699;SDS011;7950;42.744;23.174;2022-09-13T16:26:47;6.43;;;5.30;;
15699;SDS011;7950;42.744;23.174;2022-09-13T16:29:16;7.73;;;5.57;;
15699;SDS011;7950;42.744;23.174;2022-09-13T16:31:44;4.20;;;3.80;;
15699;SDS011;7950;42.744;23.174;2022-09-13T16:34:14;3.77;;;3.47;;
15699;SDS011;7950;42.744;23.174;2022-09-13T16:36:43;3.90;;;3.60;;
15699;SDS011;7950;42.744;23.174;2022-09-13T16:39:11;3.40;;;3.10;;
15699;SDS011;7950;42.744;23.174;2022-09-13T16:41:40;3.60;;;3.30;;
15699;SDS011;7950;42.744;23.174;2022-09-13T16:44:08;3.50;;;3.10;;
15699;SDS011;7950;42.744;23.174;2022-09-13T16:46:37;3.70;;;3.40;;
15699;SDS011;7950;42.744;23.174;2022-09-13T16:49:05;8.83;;;4.93;;
15699;SDS011;7950;42.744;23.174;2022-09-13T16:51:35;14.30;;;9.17;;
15699;SDS011;7950;42.744;23.174;2022-09-13T16:54:04;21.70;;;13.00;;